sensor_id;sensor_type;location;lat;lon;timestamp;pressure;altitude;pressure_sealevel;temperature;humidity
3544;BME280;1786;52.870;9.578;2023-09-07T00:01:00;101357.38;;;28.60;48.91
3544;BME280;1786;52.870;9.578;2023-09-07T00:03:29;101356.38;;;28.68;48.56
3544;BME280;1786;52.870;9.578;2023-09-07T00:05:56;101352.84;;;28.74;48.40
3544;BME280;1786;52.870;9.578;2023-09-07T00:08:23;101347.16;;;28.69;48.15
3544;BME280;1786;52.870;9.578;2023-09-07T00:10:51;101344.03;;;28.65;48.34
3544;BME280;1786;52.870;9.578;2023-09-07T00:13:18;101353.41;;;28.63;48.57
3544;BME280;1786;52.870;9.578;2023-09-07T00:15:45;101350.63;;;28.56;48.50
3544;BME280;1786;52.870;9.578;2023-09-07T00:18:12;101350.19;;;28.53;48.27
3544;BME280;1786;52.870;9.578;2023-09-07T00:20:39;101341.69;;;28.41;48.41
3544;BME280;1786;52.870;9.578;2023-09-07T00:23:07;101350.50;;;28.43;48.58
3544;BME280;1786;52.870;9.578;2023-09-07T00:25:34;101348.38;;;28.38;48.73
3544;BME280;1786;52.870;9.578;2023-09-07T00:28:01;101352.47;;;28.27;48.62
3544;BME280;1786;52.870;9.578;2023-09-07T00:30:28;101354.47;;;28.19;49.07
3544;BME280;1786;52.870;9.578;2023-09-07T00:32:54;101342.59;;;28.26;48.82
3544;BME280;1786;52.870;9.578;2023-09-07T00:35:21;101345.91;;;28.22;48.42
3544;BME280;1786;52.870;9.578;2023-09-07T00:37:48;101345.78;;;28.09;48.78
3544;BME280;1786;52.870;9.578;2023-09-07T00:40:14;101340.09;;;28.03;48.52
3544;BME280;1786;52.870;9.578;2023-09-07T00:42:42;101341.75;;;28.04;48.98
3544;BME280;1786;52.870;9.578;2023-09-07T00:45:09;101341.47;;;27.93;49.07
3544;BME280;1786;52.870;9.578;2023-09-07T00:47:36;101339.00;;;27.98;48.82
3544;BME280;1786;52.870;9.578;2023-09-07T00:50:04;101346.41;;;27.89;48.76
3544;BME280;1786;52.870;9.578;2023-09-07T00:52:34;101336.16;;;27.85;49.04
3544;BME280;1786;52.870;9.578;2023-09-07T00:55:04;101335.66;;;27.81;48.66
3544;BME280;1786;52.870;9.578;2023-09-07T00:57:32;101336.44;;;27.75;48.95
3544;BME280;1786;52.870;9.578;2023-09-07T00:59:59;101329.69;;;27.71;49.23
3544;BME280;1786;52.870;9.578;2023-09-07T01:02:27;101327.09;;;27.62;49.39
3544;BME280;1786;52.870;9.578;2023-09-07T01:04:56;101329.03;;;27.69;49.36
3544;BME280;1786;52.870;9.578;2023-09-07T01:07:25;101327.66;;;27.58;49.33
3544;BME280;1786;52.870;9.578;2023-09-07T01:09:59;101323.19;;;27.50;49.40
3544;BME280;1786;52.870;9.578;2023-09-07T01:12:26;101319.09;;;27.54;49.47
3544;BME280;1786;52.870;9.578;2023-09-07T01:14:54;101328.34;;;27.45;49.77
3544;BME280;1786;52.870;9.578;2023-09-07T01:17:21;101318.78;;;27.49;49.80
3544;BME280;1786;52.870;9.578;2023-09-07T01:19:49;101323.59;;;27.47;50.05
3544;BME280;1786;52.870;9.578;2023-09-07T01:22:18;101324.53;;;27.39;49.95
3544;BME280;1786;52.870;9.578;2023-09-07T01:24:46;101325.75;;;27.37;49.99
3544;BME280;1786;52.870;9.578;2023-09-07T01:27:14;101327.59;;;27.36;49.59
3544;BME280;1786;52.870;9.578;2023-09-07T01:29:41;101318.34;;;27.31;49.70
3544;BME280;1786;52.870;9.578;2023-09-07T01:32:08;101328.47;;;27.37;49.61
3544;BME280;1786;52.870;9.578;2023-09-07T01:34:37;101317.69;;;27.29;49.35
3544;BME280;1786;52.870;9.578;2023-09-07T01:37:07;101318.47;;;27.23;49.95
3544;BME280;1786;52.870;9.578;2023-09-07T01:39:34;101320.72;;;27.19;49.81
3544;BME280;1786;52.870;9.578;2023-09-07T01:42:01;101325.63;;;27.15;49.63
3544;BME280;1786;52.870;9.578;2023-09-07T01:44:29;101323.97;;;27.14;49.77
3544;BME280;1786;52.870;9.578;2023-09-07T01:46:56;101318.72;;;27.13;49.47
3544;BME280;1786;52.870;9.578;2023-09-07T01:49:23;101323.03;;;27.07;49.51
3544;BME280;1786;52.870;9.578;2023-09-07T01:51:51;101323.59;;;27.03;49.97
3544;BME280;1786;52.870;9.578;2023-09-07T01:54:21;101322.53;;;27.04;49.92
3544;BME280;1786;52.870;9.578;2023-09-07T01:56:48;101320.78;;;26.96;49.94
3544;BME280;1786;52.870;9.578;2023-09-07T01:59:15;101326.97;;;26.90;50.07
3544;BME280;1786;52.870;9.578;2023-09-07T02:01:41;101330.78;;;26.81;50.21
3544;BME280;1786;52.870;9.578;2023-09-07T02:04:08;101330.59;;;26.82;49.90
3544;BME280;1786;52.870;9.578;2023-09-07T02:06:35;101325.00;;;26.69;50.83
3544;BME280;1786;52.870;9.578;2023-09-07T02:09:02;101326.00;;;26.83;50.36
3544;BME280;1786;52.870;9.578;2023-09-07T02:11:30;101323.31;;;26.83;50.44
3544;BME280;1786;52.870;9.578;2023-09-07T02:13:57;101319.56;;;26.69;50.99
3544;BME280;1786;52.870;9.578;2023-09-07T02:16:24;101321.69;;;26.73;50.79
3544;BME280;1786;52.870;9.578;2023-09-07T02:19:00;101320.88;;;26.50;51.13
3544;BME280;1786;52.870;9.578;2023-09-07T02:21:27;101325.16;;;26.67;51.17
3544;BME280;1786;52.870;9.578;2023-09-07T02:23:54;101325.72;;;26.77;50.70
3544;BME280;1786;52.870;9.578;2023-09-07T02:26:21;101321.69;;;26.73;50.43
3544;BME280;1786;52.870;9.578;2023-09-07T02:28:48;101328.81;;;26.74;50.53
3544;BME280;1786;52.870;9.578;2023-09-07T02:31:14;101332.47;;;26.82;50.01
3544;BME280;1786;52.870;9.578;2023-09-07T02:33:41;101325.91;;;26.76;50.34
3544;BME280;1786;52.870;9.578;2023-09-07T02:36:08;101327.97;;;26.74;49.87
3544;BME280;1786;52.870;9.578;2023-09-07T02:38:34;101327.13;;;26.73;50.28
3544;BME280;1786;52.870;9.578;2023-09-07T02:41:01;101319.75;;;26.67;50.40
3544;BME280;1786;52.870;9.578;2023-09-07T02:43:29;101321.88;;;26.57;50.65
3544;BME280;1786;52.870;9.578;2023-09-07T02:45:57;101324.69;;;26.64;50.33
3544;BME280;1786;52.870;9.578;2023-09-07T02:48:23;101318.69;;;26.68;50.09
3544;BME280;1786;52.870;9.578;2023-09-07T02:50:50;101331.06;;;26.56;50.04
3544;BME280;1786;52.870;9.578;2023-09-07T02:53:20;101326.91;;;26.60;50.36
3544;BME280;1786;52.870;9.578;2023-09-07T02:55:47;101331.56;;;26.51;50.45
3544;BME280;1786;52.870;9.578;2023-09-07T02:58:13;101342.16;;;26.23;51.65
3544;BME280;1786;52.870;9.578;2023-09-07T03:00:45;101334.66;;;26.25;51.46
3544;BME280;1786;52.870;9.578;2023-09-07T03:03:14;101341.03;;;26.32;51.28
3544;BME280;1786;52.870;9.578;2023-09-07T03:05:43;101332.53;;;26.36;51.18
3544;BME280;1786;52.870;9.578;2023-09-07T03:08:10;101337.69;;;26.45;50.99
3544;BME280;1786;52.870;9.578;2023-09-07T03:10:37;101339.34;;;26.54;51.25
3544;BME280;1786;52.870;9.578;2023-09-07T03:13:09;101341.88;;;26.56;50.78
3544;BME280;1786;52.870;9.578;2023-09-07T03:15:37;101342.94;;;26.47;51.32
3544;BME280;1786;52.870;9.578;2023-09-07T03:18:07;101340.78;;;26.42;51.48
3544;BME280;1786;52.870;9.578;2023-09-07T03:20:35;101340.38;;;26.30;51.27
3544;BME280;1786;52.870;9.578;2023-09-07T03:23:03;101333.97;;;26.08;51.54
3544;BME280;1786;52.870;9.578;2023-09-07T03:25:30;101328.34;;;26.10;51.71
3544;BME280;1786;52.870;9.578;2023-09-07T03:27:57;101326.97;;;26.14;51.44
3544;BME280;1786;52.870;9.578;2023-09-07T03:30:24;101337.19;;;26.27;50.94
3544;BME280;1786;52.870;9.578;2023-09-07T03:32:52;101334.91;;;26.39;50.63
3544;BME280;1786;52.870;9.578;2023-09-07T03:35:19;101334.78;;;26.09;51.46
3544;BME280;1786;52.870;9.578;2023-09-07T03:37:46;101334.19;;;25.99;51.68
3544;BME280;1786;52.870;9.578;2023-09-07T03:40:14;101328.63;;;26.15;51.27
3544;BME280;1786;52.870;9.578;2023-09-07T03:42:41;101339.06;;;26.03;51.88
3544;BME280;1786;52.870;9.578;2023-09-07T03:45:09;101331.84;;;26.19;50.98
3544;BME280;1786;52.870;9.578;2023-09-07T03:47:37;101338.63;;;26.15;51.48
3544;BME280;1786;52.870;9.578;2023-09-07T03:50:05;101339.91;;;26.27;50.98
3544;BME280;1786;52.870;9.578;2023-09-07T03:52:32;101331.91;;;26.33;50.82
3544;BME280;1786;52.870;9.578;2023-09-07T03:55:01;101341.66;;;26.20;51.24
3544;BME280;1786;52.870;9.578;2023-09-07T03:57:28;101338.75;;;26.21;50.97
3544;BME280;1786;52.870;9.578;2023-09-07T03:59:56;101338.41;;;26.24;50.92
3544;BME280;1786;52.870;9.578;2023-09-07T04:02:24;101342.16;;;26.23;50.51
3544;BME280;1786;52.870;9.578;2023-09-07T04:04:52;101349.41;;;26.23;50.65
3544;BME280;1786;52.870;9.578;2023-09-07T04:07:20;101342.47;;;26.20;50.66
3544;BME280;1786;52.870;9.578;2023-09-07T04:09:47;101343.81;;;26.01;51.20
3544;BME280;1786;52.870;9.578;2023-09-07T04:12:14;101345.63;;;26.09;50.85
3544;BME280;1786;52.870;9.578;2023-09-07T04:14:41;101338.56;;;26.00;51.08
3544;BME280;1786;52.870;9.578;2023-09-07T04:17:09;101341.66;;;25.97;51.50
3544;BME280;1786;52.870;9.578;2023-09-07T04:19:36;101340.19;;;25.78;51.51
3544;BME280;1786;52.870;9.578;2023-09-07T04:22:03;101349.19;;;25.78;51.73
3544;BME280;1786;52.870;9.578;2023-09-07T04:24:30;101353.56;;;25.79;51.51
3544;BME280;1786;52.870;9.578;2023-09-07T04:26:59;101344.25;;;25.82;51.59
3544;BME280;1786;52.870;9.578;2023-09-07T04:29:27;101348.75;;;25.98;51.05
3544;BME280;1786;52.870;9.578;2023-09-07T04:31:55;101346.69;;;26.00;51.27
3544;BME280;1786;52.870;9.578;2023-09-07T04:34:22;101349.25;;;26.01;50.66
3544;BME280;1786;52.870;9.578;2023-09-07T04:36:50;101357.66;;;26.06;50.70
3544;BME280;1786;52.870;9.578;2023-09-07T04:39:17;101351.34;;;25.91;51.06
3544;BME280;1786;52.870;9.578;2023-09-07T04:41:44;101351.50;;;25.89;51.11
3544;BME280;1786;52.870;9.578;2023-09-07T04:44:12;101353.63;;;25.71;51.44
3544;BME280;1786;52.870;9.578;2023-09-07T04:46:38;101352.97;;;25.30;52.40
3544;BME280;1786;52.870;9.578;2023-09-07T04:49:07;101359.59;;;25.19;53.11
3544;BME280;1786;52.870;9.578;2023-09-07T04:51:34;101355.63;;;25.46;52.58
3544;BME280;1786;52.870;9.578;2023-09-07T04:54:01;101351.09;;;25.38;52.90
3544;BME280;1786;52.870;9.578;2023-09-07T04:56:28;101362.00;;;25.53;52.60
3544;BME280;1786;52.870;9.578;2023-09-07T04:58:55;101355.63;;;25.46;52.82
3544;BME280;1786;52.870;9.578;2023-09-07T05:01:23;101352.13;;;25.29;53.28
3544;BME280;1786;52.870;9.578;2023-09-07T05:03:51;101362.13;;;25.12;53.15
3544;BME280;1786;52.870;9.578;2023-09-07T05:06:18;101361.47;;;25.02;53.93
3544;BME280;1786;52.870;9.578;2023-09-07T05:08:45;101361.69;;;24.84;54.28
3544;BME280;1786;52.870;9.578;2023-09-07T05:11:12;101367.75;;;24.86;54.44
3544;BME280;1786;52.870;9.578;2023-09-07T05:13:39;101368.13;;;24.67;54.83
3544;BME280;1786;52.870;9.578;2023-09-07T05:16:05;101364.91;;;24.88;54.73
3544;BME280;1786;52.870;9.578;2023-09-07T05:18:34;101365.84;;;25.19;54.12
3544;BME280;1786;52.870;9.578;2023-09-07T05:21:23;101363.81;;;26.23;51.46
3544;BME280;1786;52.870;9.578;2023-09-07T05:23:50;101361.22;;;27.21;49.65
3544;BME280;1786;52.870;9.578;2023-09-07T05:26:21;101371.78;;;27.96;48.05
3544;BME280;1786;52.870;9.578;2023-09-07T05:28:50;101372.91;;;28.23;47.66
3544;BME280;1786;52.870;9.578;2023-09-07T05:31:16;101377.09;;;28.47;47.12
3544;BME280;1786;52.870;9.578;2023-09-07T05:33:43;101381.22;;;28.65;46.36
3544;BME280;1786;52.870;9.578;2023-09-07T05:36:10;101382.75;;;28.96;46.52
3544;BME280;1786;52.870;9.578;2023-09-07T05:38:37;101368.44;;;30.38;44.43
3544;BME280;1786;52.870;9.578;2023-09-07T05:41:06;101384.13;;;31.22;42.02
3544;BME280;1786;52.870;9.578;2023-09-07T05:43:33;101387.75;;;32.38;41.14
3544;BME280;1786;52.870;9.578;2023-09-07T05:46:00;101388.97;;;33.73;39.68
3544;BME280;1786;52.870;9.578;2023-09-07T05:48:27;101401.69;;;34.16;37.71
3544;BME280;1786;52.870;9.578;2023-09-07T05:50:54;101399.63;;;34.11;37.95
3544;BME280;1786;52.870;9.578;2023-09-07T05:53:21;101405.50;;;34.26;37.73
3544;BME280;1786;52.870;9.578;2023-09-07T05:55:48;101408.38;;;34.32;37.43
3544;BME280;1786;52.870;9.578;2023-09-07T05:58:15;101404.84;;;34.43;37.78
3544;BME280;1786;52.870;9.578;2023-09-07T06:00:43;101405.97;;;34.77;37.09
3544;BME280;1786;52.870;9.578;2023-09-07T06:03:13;101409.06;;;35.28;36.21
3544;BME280;1786;52.870;9.578;2023-09-07T06:05:40;101403.16;;;36.34;35.22
3544;BME280;1786;52.870;9.578;2023-09-07T06:08:08;101414.75;;;36.65;34.96
3544;BME280;1786;52.870;9.578;2023-09-07T06:10:36;101416.72;;;36.86;34.46
3544;BME280;1786;52.870;9.578;2023-09-07T06:13:04;101416.47;;;36.71;33.95
3544;BME280;1786;52.870;9.578;2023-09-07T06:15:31;101424.09;;;37.58;33.73
3544;BME280;1786;52.870;9.578;2023-09-07T06:17:59;101426.38;;;37.22;34.13
3544;BME280;1786;52.870;9.578;2023-09-07T06:20:26;101427.91;;;37.57;33.33
3544;BME280;1786;52.870;9.578;2023-09-07T06:22:55;101432.66;;;37.84;32.97
3544;BME280;1786;52.870;9.578;2023-09-07T06:25:22;101427.84;;;37.74;33.19
3544;BME280;1786;52.870;9.578;2023-09-07T06:27:50;101427.94;;;38.34;32.77
3544;BME280;1786;52.870;9.578;2023-09-07T06:30:17;101431.97;;;38.53;32.75
3544;BME280;1786;52.870;9.578;2023-09-07T06:32:44;101426.28;;;38.65;32.50
3544;BME280;1786;52.870;9.578;2023-09-07T06:35:11;101427.78;;;38.45;32.84
3544;BME280;1786;52.870;9.578;2023-09-07T06:37:38;101431.38;;;38.83;32.28
3544;BME280;1786;52.870;9.578;2023-09-07T06:40:09;101427.75;;;38.78;32.15
3544;BME280;1786;52.870;9.578;2023-09-07T06:42:38;101422.78;;;38.15;33.53
3544;BME280;1786;52.870;9.578;2023-09-07T06:45:10;101418.69;;;38.50;32.65
3544;BME280;1786;52.870;9.578;2023-09-07T06:47:37;101418.31;;;39.16;32.81
3544;BME280;1786;52.870;9.578;2023-09-07T06:50:05;101420.13;;;38.90;32.64
3544;BME280;1786;52.870;9.578;2023-09-07T06:52:32;101421.72;;;39.33;32.40
3544;BME280;1786;52.870;9.578;2023-09-07T06:54:59;101419.50;;;38.83;32.64
3544;BME280;1786;52.870;9.578;2023-09-07T06:57:26;101419.84;;;38.54;33.18
3544;BME280;1786;52.870;9.578;2023-09-07T06:59:53;101422.97;;;37.37;34.03
3544;BME280;1786;52.870;9.578;2023-09-07T07:02:21;101414.78;;;36.87;34.81
3544;BME280;1786;52.870;9.578;2023-09-07T07:04:47;101422.22;;;37.64;34.20
3544;BME280;1786;52.870;9.578;2023-09-07T07:07:16;101417.16;;;36.78;35.57
3544;BME280;1786;52.870;9.578;2023-09-07T07:09:43;101415.44;;;35.97;36.79
3544;BME280;1786;52.870;9.578;2023-09-07T07:12:10;101410.59;;;36.16;36.65
3544;BME280;1786;52.870;9.578;2023-09-07T07:14:37;101418.03;;;36.33;36.59
3544;BME280;1786;52.870;9.578;2023-09-07T07:17:04;101430.88;;;37.12;35.99
3544;BME280;1786;52.870;9.578;2023-09-07T07:19:32;101438.31;;;37.50;35.88
3544;BME280;1786;52.870;9.578;2023-09-07T07:22:01;101437.88;;;38.07;35.25
3544;BME280;1786;52.870;9.578;2023-09-07T07:24:28;101436.50;;;38.64;34.40
3544;BME280;1786;52.870;9.578;2023-09-07T07:26:55;101438.56;;;39.22;33.69
3544;BME280;1786;52.870;9.578;2023-09-07T07:29:24;101448.81;;;39.84;33.78
3544;BME280;1786;52.870;9.578;2023-09-07T07:31:52;101451.69;;;40.56;32.58
3544;BME280;1786;52.870;9.578;2023-09-07T07:34:19;101453.09;;;40.58;32.51
3544;BME280;1786;52.870;9.578;2023-09-07T07:36:46;101454.94;;;40.01;32.29
3544;BME280;1786;52.870;9.578;2023-09-07T07:39:13;101450.59;;;40.57;32.58
3544;BME280;1786;52.870;9.578;2023-09-07T07:41:40;101449.78;;;40.66;32.20
3544;BME280;1786;52.870;9.578;2023-09-07T07:44:09;101450.03;;;40.29;33.17
3544;BME280;1786;52.870;9.578;2023-09-07T07:46:36;101452.75;;;40.09;32.81
3544;BME280;1786;52.870;9.578;2023-09-07T07:49:03;101455.31;;;40.41;32.97
3544;BME280;1786;52.870;9.578;2023-09-07T07:51:30;101454.31;;;39.79;33.79
3544;BME280;1786;52.870;9.578;2023-09-07T07:53:57;101445.59;;;40.33;33.07
3544;BME280;1786;52.870;9.578;2023-09-07T07:56:24;101456.94;;;40.37;33.24
3544;BME280;1786;52.870;9.578;2023-09-07T07:58:53;101458.22;;;39.88;33.79
3544;BME280;1786;52.870;9.578;2023-09-07T08:01:20;101459.66;;;40.11;33.61
3544;BME280;1786;52.870;9.578;2023-09-07T08:03:49;101460.66;;;39.74;33.44
3544;BME280;1786;52.870;9.578;2023-09-07T08:06:16;101461.03;;;38.61;32.66
3544;BME280;1786;52.870;9.578;2023-09-07T08:08:45;101447.72;;;36.59;34.70
3544;BME280;1786;52.870;9.578;2023-09-07T08:11:12;101433.22;;;35.14;36.46
3544;BME280;1786;52.870;9.578;2023-09-07T08:13:40;101436.81;;;36.36;35.91
3544;BME280;1786;52.870;9.578;2023-09-07T08:16:08;101429.88;;;36.33;36.28
3544;BME280;1786;52.870;9.578;2023-09-07T08:18:38;101438.94;;;36.79;35.16
3544;BME280;1786;52.870;9.578;2023-09-07T08:21:06;101440.50;;;36.42;35.71
3544;BME280;1786;52.870;9.578;2023-09-07T08:23:33;101437.78;;;35.72;36.65
3544;BME280;1786;52.870;9.578;2023-09-07T08:26:00;101432.44;;;35.54;36.79
3544;BME280;1786;52.870;9.578;2023-09-07T08:28:28;101420.19;;;35.09;36.51
3544;BME280;1786;52.870;9.578;2023-09-07T08:30:56;101424.72;;;35.39;36.67
3544;BME280;1786;52.870;9.578;2023-09-07T08:33:26;101436.41;;;35.46;37.05
3544;BME280;1786;52.870;9.578;2023-09-07T08:35:56;101432.97;;;36.37;35.93
3544;BME280;1786;52.870;9.578;2023-09-07T08:38:23;101427.13;;;36.16;36.62
3544;BME280;1786;52.870;9.578;2023-09-07T08:40:54;101430.91;;;36.44;36.13
3544;BME280;1786;52.870;9.578;2023-09-07T08:43:24;101431.84;;;34.58;37.84
3544;BME280;1786;52.870;9.578;2023-09-07T08:46:00;101419.41;;;34.43;37.70
3544;BME280;1786;52.870;9.578;2023-09-07T08:48:31;101419.41;;;34.43;37.90
3544;BME280;1786;52.870;9.578;2023-09-07T08:51:00;101421.19;;;34.50;38.15
3544;BME280;1786;52.870;9.578;2023-09-07T08:53:30;101425.53;;;33.97;38.39
3544;BME280;1786;52.870;9.578;2023-09-07T08:56:00;101423.34;;;34.47;38.43
3544;BME280;1786;52.870;9.578;2023-09-07T08:58:27;101425.66;;;33.90;38.80
3544;BME280;1786;52.870;9.578;2023-09-07T09:00:55;101421.44;;;33.57;39.45
3544;BME280;1786;52.870;9.578;2023-09-07T09:03:34;101421.69;;;33.12;38.90
3544;BME280;1786;52.870;9.578;2023-09-07T09:06:01;101417.97;;;33.07;39.79
3544;BME280;1786;52.870;9.578;2023-09-07T09:08:28;101418.59;;;33.27;39.57
3544;BME280;1786;52.870;9.578;2023-09-07T09:11:01;101431.88;;;33.67;39.42
3544;BME280;1786;52.870;9.578;2023-09-07T09:13:32;101432.84;;;33.73;39.09
3544;BME280;1786;52.870;9.578;2023-09-07T09:16:03;101431.81;;;33.49;39.05
3544;BME280;1786;52.870;9.578;2023-09-07T09:18:30;101427.34;;;33.73;39.65
3544;BME280;1786;52.870;9.578;2023-09-07T09:20:58;101438.34;;;33.11;39.68
3544;BME280;1786;52.870;9.578;2023-09-07T09:23:36;101427.13;;;32.94;39.58
3544;BME280;1786;52.870;9.578;2023-09-07T09:26:04;101433.59;;;32.43;39.86
3544;BME280;1786;52.870;9.578;2023-09-07T09:28:34;101431.00;;;31.84;41.81
3544;BME280;1786;52.870;9.578;2023-09-07T09:31:03;101429.78;;;32.50;40.97
3544;BME280;1786;52.870;9.578;2023-09-07T09:33:31;101437.69;;;33.15;40.30
3544;BME280;1786;52.870;9.578;2023-09-07T09:35:58;101430.38;;;32.84;40.58
3544;BME280;1786;52.870;9.578;2023-09-07T09:38:25;101439.47;;;33.47;39.92
3544;BME280;1786;52.870;9.578;2023-09-07T09:40:52;101439.97;;;33.92;37.76
3544;BME280;1786;52.870;9.578;2023-09-07T09:43:20;101429.63;;;34.36;37.95
3544;BME280;1786;52.870;9.578;2023-09-07T09:45:48;101433.72;;;33.48;38.70
3544;BME280;1786;52.870;9.578;2023-09-07T09:48:22;101425.81;;;33.22;39.40
3544;BME280;1786;52.870;9.578;2023-09-07T09:50:50;101418.75;;;32.89;39.47
3544;BME280;1786;52.870;9.578;2023-09-07T09:53:18;101418.00;;;34.11;39.04
3544;BME280;1786;52.870;9.578;2023-09-07T09:55:47;101410.06;;;33.17;38.92
3544;BME280;1786;52.870;9.578;2023-09-07T09:58:15;101415.53;;;33.35;39.47
3544;BME280;1786;52.870;9.578;2023-09-07T10:00:43;101417.03;;;32.69;40.28
3544;BME280;1786;52.870;9.578;2023-09-07T10:03:26;101413.13;;;33.27;39.15
3544;BME280;1786;52.870;9.578;2023-09-07T10:05:54;101403.47;;;34.22;38.17
3544;BME280;1786;52.870;9.578;2023-09-07T10:08:21;101403.25;;;33.93;37.90
3544;BME280;1786;52.870;9.578;2023-09-07T10:10:54;101397.75;;;34.65;36.95
3544;BME280;1786;52.870;9.578;2023-09-07T10:13:32;101404.53;;;34.86;36.51
3544;BME280;1786;52.870;9.578;2023-09-07T10:16:04;101388.41;;;33.82;37.79
3544;BME280;1786;52.870;9.578;2023-09-07T10:18:38;101392.47;;;33.61;38.02
3544;BME280;1786;52.870;9.578;2023-09-07T10:21:06;101388.31;;;33.89;37.88
3544;BME280;1786;52.870;9.578;2023-09-07T10:23:41;101395.72;;;34.61;37.10
3544;BME280;1786;52.870;9.578;2023-09-07T10:26:18;101392.81;;;35.03;36.99
3544;BME280;1786;52.870;9.578;2023-09-07T10:28:45;101396.72;;;35.42;35.93
3544;BME280;1786;52.870;9.578;2023-09-07T10:31:19;101388.22;;;33.96;37.67
3544;BME280;1786;52.870;9.578;2023-09-07T10:33:46;101383.84;;;33.76;37.14
3544;BME280;1786;52.870;9.578;2023-09-07T10:36:24;101390.19;;;33.77;37.21
3544;BME280;1786;52.870;9.578;2023-09-07T10:38:51;101389.59;;;33.56;37.38
3544;BME280;1786;52.870;9.578;2023-09-07T10:41:22;101387.13;;;33.67;37.99
3544;BME280;1786;52.870;9.578;2023-09-07T10:43:54;101387.41;;;33.95;37.09
3544;BME280;1786;52.870;9.578;2023-09-07T10:46:22;101382.66;;;34.02;37.60
3544;BME280;1786;52.870;9.578;2023-09-07T10:48:51;101367.50;;;34.00;36.91
3544;BME280;1786;52.870;9.578;2023-09-07T10:51:19;101379.13;;;34.14;36.85
3544;BME280;1786;52.870;9.578;2023-09-07T10:53:46;101371.13;;;34.66;36.52
3544;BME280;1786;52.870;9.578;2023-09-07T10:56:13;101373.28;;;35.11;36.73
3544;BME280;1786;52.870;9.578;2023-09-07T10:58:40;101373.00;;;35.24;36.27
3544;BME280;1786;52.870;9.578;2023-09-07T11:01:09;101366.66;;;35.00;35.51
3544;BME280;1786;52.870;9.578;2023-09-07T11:03:36;101366.34;;;35.49;35.28
3544;BME280;1786;52.870;9.578;2023-09-07T11:06:10;101369.16;;;34.55;36.59
3544;BME280;1786;52.870;9.578;2023-09-07T11:08:38;101369.31;;;34.83;36.98
3544;BME280;1786;52.870;9.578;2023-09-07T11:11:05;101354.72;;;34.95;36.40
3544;BME280;1786;52.870;9.578;2023-09-07T11:13:32;101362.28;;;35.11;35.42
3544;BME280;1786;52.870;9.578;2023-09-07T11:16:00;101360.81;;;35.61;35.42
3544;BME280;1786;52.870;9.578;2023-09-07T11:18:27;101365.13;;;35.16;35.40
3544;BME280;1786;52.870;9.578;2023-09-07T11:20:54;101358.81;;;34.80;35.63
3544;BME280;1786;52.870;9.578;2023-09-07T11:23:21;101354.84;;;34.41;37.38
3544;BME280;1786;52.870;9.578;2023-09-07T11:25:49;101353.19;;;34.87;36.18
3544;BME280;1786;52.870;9.578;2023-09-07T11:28:19;101354.66;;;35.42;34.89
3544;BME280;1786;52.870;9.578;2023-09-07T11:30:53;101349.59;;;35.10;34.68
3544;BME280;1786;52.870;9.578;2023-09-07T11:33:22;101349.38;;;36.09;34.81
3544;BME280;1786;52.870;9.578;2023-09-07T11:35:49;101343.16;;;36.02;33.93
3544;BME280;1786;52.870;9.578;2023-09-07T11:38:17;101353.81;;;35.82;33.81
3544;BME280;1786;52.870;9.578;2023-09-07T11:40:44;101342.78;;;35.65;34.80
3544;BME280;1786;52.870;9.578;2023-09-07T11:43:13;101342.41;;;35.90;34.48
3544;BME280;1786;52.870;9.578;2023-09-07T11:45:41;101338.19;;;36.16;35.06
3544;BME280;1786;52.870;9.578;2023-09-07T11:48:10;101334.91;;;36.02;34.40
3544;BME280;1786;52.870;9.578;2023-09-07T11:50:37;101346.63;;;36.99;34.05
3544;BME280;1786;52.870;9.578;2023-09-07T11:53:05;101349.13;;;36.61;34.54
3544;BME280;1786;52.870;9.578;2023-09-07T11:55:33;101345.38;;;37.07;36.53
3544;BME280;1786;52.870;9.578;2023-09-07T11:58:01;101333.28;;;36.18;34.91
3544;BME280;1786;52.870;9.578;2023-09-07T12:00:28;101335.84;;;35.62;35.72
3544;BME280;1786;52.870;9.578;2023-09-07T12:02:56;101335.88;;;36.08;35.53
3544;BME280;1786;52.870;9.578;2023-09-07T12:05:23;101333.50;;;36.00;35.42
3544;BME280;1786;52.870;9.578;2023-09-07T12:07:50;101330.59;;;36.06;36.04
3544;BME280;1786;52.870;9.578;2023-09-07T12:10:18;101325.22;;;35.83;36.22
3544;BME280;1786;52.870;9.578;2023-09-07T12:12:45;101332.94;;;36.48;35.87
3544;BME280;1786;52.870;9.578;2023-09-07T12:15:12;101333.03;;;36.70;35.16
3544;BME280;1786;52.870;9.578;2023-09-07T12:17:39;101328.13;;;36.22;36.08
3544;BME280;1786;52.870;9.578;2023-09-07T12:20:07;101322.97;;;35.80;35.80
3544;BME280;1786;52.870;9.578;2023-09-07T12:22:37;101318.91;;;35.99;35.94
3544;BME280;1786;52.870;9.578;2023-09-07T12:25:07;101307.53;;;35.50;36.52
3544;BME280;1786;52.870;9.578;2023-09-07T12:27:42;101315.06;;;35.26;36.94
3544;BME280;1786;52.870;9.578;2023-09-07T12:30:21;101312.41;;;36.05;36.53
3544;BME280;1786;52.870;9.578;2023-09-07T12:32:50;101312.22;;;35.95;36.18
3544;BME280;1786;52.870;9.578;2023-09-07T12:35:17;101305.91;;;34.85;36.79
3544;BME280;1786;52.870;9.578;2023-09-07T12:37:44;101306.06;;;34.78;37.81
3544;BME280;1786;52.870;9.578;2023-09-07T12:40:12;101300.06;;;34.69;38.21
3544;BME280;1786;52.870;9.578;2023-09-07T12:42:43;101299.47;;;34.56;38.40
3544;BME280;1786;52.870;9.578;2023-09-07T12:45:11;101288.47;;;35.72;36.41
3544;BME280;1786;52.870;9.578;2023-09-07T12:47:39;101291.84;;;34.81;37.54
3544;BME280;1786;52.870;9.578;2023-09-07T12:50:08;101287.38;;;35.44;38.51
3544;BME280;1786;52.870;9.578;2023-09-07T12:52:35;101284.47;;;35.51;36.58
3544;BME280;1786;52.870;9.578;2023-09-07T12:55:05;101289.88;;;35.05;37.09
3544;BME280;1786;52.870;9.578;2023-09-07T12:57:32;101284.84;;;35.14;37.21
3544;BME280;1786;52.870;9.578;2023-09-07T12:59:59;101278.28;;;35.03;37.16
3544;BME280;1786;52.870;9.578;2023-09-07T13:02:26;101287.44;;;34.68;38.18
3544;BME280;1786;52.870;9.578;2023-09-07T13:04:54;101271.31;;;34.72;38.51
3544;BME280;1786;52.870;9.578;2023-09-07T13:07:22;101287.25;;;34.99;39.44
3544;BME280;1786;52.870;9.578;2023-09-07T13:09:48;101272.56;;;33.99;38.86
3544;BME280;1786;52.870;9.578;2023-09-07T13:12:16;101267.72;;;34.83;38.41
3544;BME280;1786;52.870;9.578;2023-09-07T13:14:43;101265.94;;;35.18;37.58